UAE334 OMDB-RPLL
Flight info
| Callsign | UAE334 |
|---|---|
| Flight time | N/A |
| Altitude | 35000 |
| Route | IVURO M428 MUNGA A777 VAXIM L301 RASKI L639 BPL A791 CEA B465 CTG A599 LSO/N0482F370 A599 LINSO/K0891S1130 A599 POU B330 TAMOT/N0477F370 B330 BIGEX DCT POVAM DCT NOPER V642 NOMAN A461 AVMUP W16 TADEL |
| Aircraft | B77W/H-SDE1E2E3FGHIJ2J3J4J5M1RWXY/LB1D1 |
Departure
| Time | 2026-04-25 06:23 |
|---|---|
| Airport | Dubai International Airport (OMDB) |
Arrival
| Time | N/A |
|---|---|
| Airport | Ninoy Aquino International Airport (RPLL) |
| Time | Latitude | Longitude | Altitude | Speed | Heading |
|---|---|---|---|---|---|
| 2026-04-25 05:13 | 25.25136 | 55.35473 | 28 ft | 0 kts | 31° |
| 2026-04-25 05:14 | 25.25140 | 55.35476 | 29 ft | 0 kts | 31° |
| 2026-04-25 06:08 | 25.25127 | 55.35467 | 31 ft | 4 kts | 31° |
| 2026-04-25 06:08 | 25.25104 | 55.35451 | 31 ft | 4 kts | 31° |
| 2026-04-25 06:08 | 25.25085 | 55.35439 | 31 ft | 4 kts | 18° |
| 2026-04-25 06:09 | 25.25068 | 55.35436 | 31 ft | 4 kts | 336° |
| 2026-04-25 06:09 | 25.25054 | 55.35448 | 31 ft | 4 kts | 298° |
| 2026-04-25 06:09 | 25.25042 | 55.35475 | 30 ft | 3 kts | 301° |
| 2026-04-25 06:09 | 25.25029 | 55.35498 | 31 ft | 4 kts | 301° |
| 2026-04-25 06:10 | 25.25023 | 55.35509 | 31 ft | 0 kts | 301° |
| 2026-04-25 06:13 | 25.25032 | 55.35492 | 31 ft | 9 kts | 301° |
| 2026-04-25 06:13 | 25.25071 | 55.35423 | 31 ft | 11 kts | 301° |
| 2026-04-25 06:13 | 25.25110 | 55.35353 | 28 ft | 11 kts | 301° |
| 2026-04-25 06:14 | 25.25195 | 55.35219 | 31 ft | 11 kts | 309° |
| 2026-04-25 06:14 | 25.25241 | 55.35146 | 29 ft | 14 kts | 302° |
| 2026-04-25 06:14 | 25.25293 | 55.35056 | 30 ft | 14 kts | 302° |
| 2026-04-25 06:14 | 25.25327 | 55.34996 | 30 ft | 14 kts | 302° |
| 2026-04-25 06:15 | 25.25385 | 55.34912 | 29 ft | 14 kts | 322° |
| 2026-04-25 06:15 | 25.25477 | 55.34900 | 30 ft | 14 kts | 14° |
| 2026-04-25 06:15 | 25.25560 | 55.34954 | 30 ft | 14 kts | 33° |
| 2026-04-25 06:15 | 25.25641 | 55.35011 | 29 ft | 14 kts | 31° |
| 2026-04-25 06:16 | 25.25725 | 55.35065 | 29 ft | 14 kts | 30° |
| 2026-04-25 06:16 | 25.25751 | 55.35126 | 30 ft | 8 kts | 108° |
| 2026-04-25 06:16 | 25.25754 | 55.35189 | 28 ft | 10 kts | 51° |
| 2026-04-25 06:16 | 25.25823 | 55.35244 | 29 ft | 13 kts | 33° |
| 2026-04-25 06:17 | 25.25900 | 55.35297 | 29 ft | 13 kts | 31° |
| 2026-04-25 06:17 | 25.25979 | 55.35357 | 27 ft | 16 kts | 46° |
| 2026-04-25 06:17 | 25.26014 | 55.35487 | 27 ft | 21 kts | 95° |
| 2026-04-25 06:17 | 25.25945 | 55.35637 | 28 ft | 22 kts | 122° |
| 2026-04-25 06:18 | 25.25863 | 55.35781 | 28 ft | 22 kts | 122° |
| 2026-04-25 06:18 | 25.25781 | 55.35925 | 28 ft | 22 kts | 122° |
| 2026-04-25 06:18 | 25.25700 | 55.36070 | 28 ft | 22 kts | 122° |
| 2026-04-25 06:18 | 25.25619 | 55.36215 | 29 ft | 22 kts | 121° |
| 2026-04-25 06:19 | 25.25539 | 55.36360 | 28 ft | 22 kts | 123° |
| 2026-04-25 06:19 | 25.25456 | 55.36504 | 29 ft | 22 kts | 122° |
| 2026-04-25 06:19 | 25.25375 | 55.36648 | 28 ft | 22 kts | 121° |
| 2026-04-25 06:19 | 25.25294 | 55.36793 | 29 ft | 22 kts | 122° |
| 2026-04-25 06:20 | 25.25212 | 55.36937 | 29 ft | 22 kts | 122° |
| 2026-04-25 06:20 | 25.25131 | 55.37082 | 30 ft | 22 kts | 122° |
| 2026-04-25 06:20 | 25.25051 | 55.37227 | 30 ft | 22 kts | 122° |
| 2026-04-25 06:20 | 25.24969 | 55.37369 | 30 ft | 22 kts | 121° |
| 2026-04-25 06:21 | 25.24889 | 55.37514 | 30 ft | 22 kts | 122° |
| 2026-04-25 06:21 | 25.24807 | 55.37659 | 30 ft | 22 kts | 122° |
| 2026-04-25 06:21 | 25.24726 | 55.37803 | 29 ft | 22 kts | 122° |
| 2026-04-25 06:21 | 25.24671 | 55.37900 | 29 ft | 9 kts | 121° |
| 2026-04-25 06:22 | 25.24685 | 55.37959 | 30 ft | 9 kts | 39° |
| 2026-04-25 06:22 | 25.24735 | 55.37998 | 32 ft | 9 kts | 32° |
| 2026-04-25 06:22 | 25.24791 | 55.38021 | 34 ft | 9 kts | 350° |
| 2026-04-25 06:22 | 25.24846 | 55.37955 | 34 ft | 22 kts | 302° |
| 2026-04-25 06:23 | 25.25018 | 55.37644 | 35 ft | 82 kts | 301° |
| 2026-04-25 06:23 | 25.25436 | 55.36891 | 34 ft | 148 kts | 301° |
| 2026-04-25 06:23 | 25.26079 | 55.35735 | 106 ft | 191 kts | 302° |
| 2026-04-25 06:23 | 25.26769 | 55.34494 | 678 ft | 194 kts | 302° |
| 2026-04-25 06:24 | 25.27489 | 55.33253 | 1314 ft | 196 kts | 304° |
| 2026-04-25 06:24 | 25.28293 | 55.31922 | 1646 ft | 215 kts | 306° |
| 2026-04-25 06:24 | 25.29202 | 55.30554 | 2130 ft | 225 kts | 316° |
| 2026-04-25 06:24 | 25.30521 | 55.29637 | 2772 ft | 226 kts | 341° |
| 2026-04-25 06:25 | 25.32087 | 55.29442 | 3222 ft | 230 kts | 3° |
| 2026-04-25 06:25 | 25.33711 | 55.29549 | 3706 ft | 235 kts | 1° |
| 2026-04-25 06:25 | 25.35325 | 55.29605 | 4456 ft | 231 kts | 360° |
| 2026-04-25 06:25 | 25.36933 | 55.29649 | 5059 ft | 234 kts | 360° |
| 2026-04-25 06:26 | 25.38580 | 55.29694 | 5535 ft | 238 kts | 3° |
| 2026-04-25 06:26 | 25.40174 | 55.30259 | 5861 ft | 252 kts | 36° |
| 2026-04-25 06:26 | 25.41383 | 55.31719 | 6004 ft | 269 kts | 52° |
| 2026-04-25 06:26 | 25.42515 | 55.33422 | 6254 ft | 281 kts | 51° |
| 2026-04-25 06:27 | 25.43743 | 55.35153 | 6705 ft | 288 kts | 49° |
| 2026-04-25 06:27 | 25.45026 | 55.36883 | 7286 ft | 292 kts | 49° |
| 2026-04-25 06:27 | 25.46320 | 55.38628 | 7932 ft | 294 kts | 49° |
| 2026-04-25 06:27 | 25.47618 | 55.40390 | 8550 ft | 297 kts | 50° |
| 2026-04-25 06:28 | 25.48925 | 55.42187 | 9136 ft | 301 kts | 51° |
| 2026-04-25 06:28 | 25.50216 | 55.44028 | 9743 ft | 305 kts | 52° |
| 2026-04-25 06:28 | 25.51516 | 55.45902 | 10299 ft | 310 kts | 52° |
| 2026-04-25 06:28 | 25.52714 | 55.47947 | 10435 ft | 327 kts | 69° |
| 2026-04-25 06:29 | 25.53051 | 55.50483 | 10601 ft | 345 kts | 98° |
| 2026-04-25 06:29 | 25.52251 | 55.53035 | 10746 ft | 360 kts | 123° |
| 2026-04-25 06:29 | 25.50812 | 55.55350 | 10866 ft | 371 kts | 128° |
| 2026-04-25 06:29 | 25.49261 | 55.57674 | 10988 ft | 381 kts | 127° |
| 2026-04-25 06:30 | 25.47774 | 55.60097 | 11148 ft | 389 kts | 123° |
| 2026-04-25 06:30 | 25.46350 | 55.62680 | 11587 ft | 395 kts | 122° |
| 2026-04-25 06:30 | 25.44930 | 55.65277 | 12455 ft | 394 kts | 122° |
| 2026-04-25 06:30 | 25.43483 | 55.67862 | 13274 ft | 396 kts | 123° |
| 2026-04-25 06:31 | 25.42209 | 55.70554 | 13723 ft | 401 kts | 107° |
| 2026-04-25 06:31 | 25.41681 | 55.73600 | 14122 ft | 403 kts | 98° |
| 2026-04-25 06:31 | 25.41294 | 55.76682 | 14376 ft | 408 kts | 99° |
| 2026-04-25 06:31 | 25.40741 | 55.79781 | 14650 ft | 412 kts | 105° |
| 2026-04-25 06:32 | 25.39975 | 55.82819 | 15216 ft | 416 kts | 107° |
| 2026-04-25 06:32 | 25.39154 | 55.85933 | 15993 ft | 417 kts | 107° |
| 2026-04-25 06:32 | 25.38408 | 55.89039 | 16711 ft | 419 kts | 105° |
| 2026-04-25 06:32 | 25.37730 | 55.92155 | 17356 ft | 424 kts | 104° |
| 2026-04-25 06:33 | 25.37064 | 55.95349 | 17981 ft | 429 kts | 104° |
| 2026-04-25 06:33 | 25.36393 | 55.98572 | 18558 ft | 433 kts | 104° |
| 2026-04-25 06:33 | 25.35707 | 56.01829 | 19083 ft | 437 kts | 104° |
| 2026-04-25 06:33 | 25.35004 | 56.05125 | 19589 ft | 443 kts | 104° |
| 2026-04-25 06:34 | 25.34287 | 56.08466 | 20104 ft | 448 kts | 104° |
| 2026-04-25 06:34 | 25.33566 | 56.11824 | 20623 ft | 452 kts | 104° |
| 2026-04-25 06:34 | 25.32832 | 56.15229 | 21129 ft | 457 kts | 105° |
| 2026-04-25 06:34 | 25.32008 | 56.18608 | 21451 ft | 455 kts | 108° |
| 2026-04-25 06:35 | 25.30997 | 56.21936 | 21538 ft | 459 kts | 112° |
| 2026-04-25 06:35 | 25.29837 | 56.25146 | 21703 ft | 466 kts | 114° |
| 2026-04-25 06:35 | 25.28566 | 56.28520 | 22197 ft | 470 kts | 113° |
| 2026-04-25 06:35 | 25.27368 | 56.31898 | 22771 ft | 472 kts | 112° |
| 2026-04-25 06:36 | 25.26234 | 56.35322 | 23255 ft | 477 kts | 111° |
| 2026-04-25 06:36 | 25.25118 | 56.38794 | 23666 ft | 482 kts | 111° |
| 2026-04-25 06:36 | 25.23986 | 56.42296 | 24055 ft | 486 kts | 111° |
| 2026-04-25 06:36 | 25.22835 | 56.45813 | 24468 ft | 488 kts | 111° |
| 2026-04-25 06:37 | 25.21670 | 56.49339 | 24893 ft | 491 kts | 111° |
| 2026-04-25 06:37 | 25.20492 | 56.52889 | 25289 ft | 494 kts | 111° |
| 2026-04-25 06:37 | 25.19304 | 56.56470 | 25690 ft | 498 kts | 111° |
| 2026-04-25 06:37 | 25.18098 | 56.60073 | 26063 ft | 500 kts | 112° |
| 2026-04-25 06:38 | 25.16813 | 56.63653 | 26428 ft | 504 kts | 114° |
| 2026-04-25 06:38 | 25.15453 | 56.67240 | 26796 ft | 507 kts | 115° |
| 2026-04-25 06:38 | 25.14078 | 56.70778 | 27178 ft | 509 kts | 115° |
| 2026-04-25 06:38 | 25.12672 | 56.74375 | 27549 ft | 512 kts | 115° |
| 2026-04-25 06:39 | 25.11263 | 56.78003 | 27908 ft | 515 kts | 115° |
| 2026-04-25 06:39 | 25.09860 | 56.81651 | 28253 ft | 518 kts | 114° |
| 2026-04-25 06:39 | 25.08460 | 56.85323 | 28576 ft | 521 kts | 114° |
| 2026-04-25 06:39 | 25.07056 | 56.89028 | 28910 ft | 523 kts | 114° |
| 2026-04-25 06:40 | 25.05653 | 56.92739 | 29250 ft | 525 kts | 114° |
| 2026-04-25 06:40 | 25.04249 | 56.96453 | 29685 ft | 524 kts | 114° |
| 2026-04-25 06:40 | 25.02845 | 57.00161 | 30179 ft | 522 kts | 114° |
| 2026-04-25 06:40 | 25.01445 | 57.03851 | 30645 ft | 520 kts | 114° |
| 2026-04-25 06:41 | 25.00067 | 57.07472 | 31068 ft | 518 kts | 114° |
| 2026-04-25 06:41 | 24.98673 | 57.11128 | 31447 ft | 517 kts | 114° |
| 2026-04-25 06:41 | 24.97279 | 57.14779 | 31833 ft | 517 kts | 114° |
| 2026-04-25 06:41 | 24.95886 | 57.18424 | 32201 ft | 516 kts | 114° |
| 2026-04-25 06:42 | 24.94494 | 57.22067 | 32578 ft | 515 kts | 114° |
| 2026-04-25 06:42 | 24.93104 | 57.25702 | 32954 ft | 514 kts | 114° |
| 2026-04-25 06:42 | 24.91718 | 57.29325 | 33320 ft | 513 kts | 114° |
| 2026-04-25 06:42 | 24.90333 | 57.32942 | 33661 ft | 512 kts | 114° |
| 2026-04-25 06:43 | 24.88952 | 57.36547 | 33994 ft | 511 kts | 114° |
| 2026-04-25 06:43 | 24.87569 | 57.40152 | 34267 ft | 511 kts | 114° |
| 2026-04-25 06:43 | 24.86184 | 57.43759 | 34496 ft | 512 kts | 114° |
| 2026-04-25 06:43 | 24.84799 | 57.47365 | 34733 ft | 512 kts | 114° |
| 2026-04-25 06:44 | 24.83409 | 57.50980 | 34845 ft | 515 kts | 114° |
| 2026-04-25 06:44 | 24.80606 | 57.58260 | 34909 ft | 515 kts | 114° |
| 2026-04-25 06:45 | 24.77827 | 57.65469 | 34904 ft | 509 kts | 114° |
| 2026-04-25 06:45 | 24.75062 | 57.72627 | 34909 ft | 507 kts | 114° |
| 2026-04-25 06:46 | 24.72361 | 57.79800 | 34906 ft | 507 kts | 111° |
| 2026-04-25 06:46 | 24.70012 | 57.87123 | 34916 ft | 508 kts | 109° |
| 2026-04-25 06:47 | 24.67810 | 57.94459 | 34918 ft | 509 kts | 109° |
| 2026-04-25 06:47 | 24.65556 | 58.01845 | 34918 ft | 510 kts | 109° |
| 2026-04-25 06:48 | 24.63249 | 58.09217 | 34917 ft | 510 kts | 110° |
| 2026-04-25 06:48 | 24.60920 | 58.16585 | 34913 ft | 510 kts | 110° |
| 2026-04-25 06:49 | 24.58592 | 58.23954 | 34911 ft | 510 kts | 110° |
| 2026-04-25 06:49 | 24.56265 | 58.31324 | 34913 ft | 510 kts | 110° |
| 2026-04-25 06:50 | 24.53935 | 58.38692 | 34914 ft | 510 kts | 110° |
| 2026-04-25 06:50 | 24.51603 | 58.46050 | 34913 ft | 510 kts | 110° |
| 2026-04-25 06:51 | 24.49266 | 58.53412 | 34913 ft | 511 kts | 110° |
| 2026-04-25 06:51 | 24.46924 | 58.60774 | 34914 ft | 511 kts | 110° |
| 2026-04-25 06:52 | 24.44589 | 58.68104 | 34913 ft | 512 kts | 110° |
| 2026-04-25 06:52 | 24.42216 | 58.75499 | 34910 ft | 513 kts | 111° |
| 2026-04-25 06:53 | 24.39408 | 58.82653 | 34915 ft | 510 kts | 117° |
| 2026-04-25 06:53 | 24.36169 | 58.89590 | 34914 ft | 512 kts | 118° |
| 2026-04-25 06:54 | 24.32916 | 58.96559 | 34914 ft | 513 kts | 117° |
| 2026-04-25 06:54 | 24.29769 | 59.03554 | 34909 ft | 514 kts | 116° |
| 2026-04-25 06:55 | 24.26643 | 59.10607 | 34904 ft | 514 kts | 116° |
| 2026-04-25 06:55 | 24.23517 | 59.17640 | 34906 ft | 513 kts | 116° |
| 2026-04-25 06:56 | 24.20385 | 59.24644 | 34905 ft | 511 kts | 116° |
| 2026-04-25 06:56 | 24.17268 | 59.31594 | 34906 ft | 510 kts | 116° |
| 2026-04-25 06:57 | 24.14137 | 59.38568 | 34909 ft | 509 kts | 116° |
| 2026-04-25 06:57 | 24.11014 | 59.45521 | 34910 ft | 508 kts | 116° |
| 2026-04-25 06:58 | 24.07889 | 59.52462 | 34904 ft | 507 kts | 116° |
| 2026-04-25 06:58 | 24.04762 | 59.59381 | 34906 ft | 507 kts | 116° |
| 2026-04-25 06:59 | 24.01654 | 59.66243 | 34907 ft | 506 kts | 116° |
| 2026-04-25 06:59 | 23.98525 | 59.73145 | 34906 ft | 506 kts | 116° |
| 2026-04-25 07:00 | 23.95399 | 59.80037 | 34910 ft | 506 kts | 116° |
| 2026-04-25 07:00 | 23.92264 | 59.86936 | 34907 ft | 507 kts | 116° |
| 2026-04-25 07:01 | 23.89123 | 59.93839 | 34911 ft | 508 kts | 116° |
| 2026-04-25 07:01 | 23.85971 | 60.00753 | 34913 ft | 509 kts | 116° |
| 2026-04-25 07:02 | 23.82805 | 60.07691 | 34909 ft | 510 kts | 116° |
| 2026-04-25 07:02 | 23.80174 | 60.13446 | 34908 ft | 510 kts | 116° |
| 2026-04-25 07:03 | 23.76996 | 60.20392 | 34906 ft | 511 kts | 116° |
| 2026-04-25 07:03 | 23.73813 | 60.27336 | 34912 ft | 511 kts | 116° |
| 2026-04-25 07:04 | 23.70623 | 60.34288 | 34913 ft | 512 kts | 116° |
| 2026-04-25 07:04 | 23.67451 | 60.41188 | 34908 ft | 511 kts | 116° |
| 2026-04-25 07:05 | 23.64256 | 60.48128 | 34906 ft | 511 kts | 116° |
| 2026-04-25 07:05 | 23.61063 | 60.55057 | 34906 ft | 510 kts | 116° |
| 2026-04-25 07:06 | 23.57877 | 60.61957 | 34907 ft | 509 kts | 116° |
| 2026-04-25 07:06 | 23.54693 | 60.68845 | 34910 ft | 508 kts | 116° |
| 2026-04-25 07:07 | 23.51506 | 60.75727 | 34911 ft | 508 kts | 116° |
| 2026-04-25 07:07 | 23.48324 | 60.82593 | 34913 ft | 507 kts | 116° |
| 2026-04-25 07:08 | 23.45158 | 60.89411 | 34912 ft | 507 kts | 116° |
| 2026-04-25 07:08 | 23.41978 | 60.96252 | 34912 ft | 506 kts | 116° |
| 2026-04-25 07:09 | 23.38798 | 61.03085 | 34911 ft | 506 kts | 116° |
| 2026-04-25 07:09 | 23.35609 | 61.09928 | 34912 ft | 506 kts | 116° |
| 2026-04-25 07:10 | 23.32577 | 61.16848 | 34909 ft | 505 kts | 111° |
| 2026-04-25 07:10 | 23.30676 | 61.24055 | 34914 ft | 495 kts | 92° |
| 2026-04-25 07:11 | 23.30596 | 61.31549 | 34908 ft | 494 kts | 88° |
| 2026-04-25 07:11 | 23.30224 | 61.39042 | 34934 ft | 501 kts | 95° |
| 2026-04-25 07:12 | 23.29350 | 61.46657 | 34923 ft | 510 kts | 96° |
| 2026-04-25 07:12 | 23.28115 | 61.58108 | 34912 ft | 510 kts | 95° |
| 2026-04-25 07:13 | 23.27417 | 61.65780 | 34911 ft | 508 kts | 94° |
| 2026-04-25 07:13 | 23.26745 | 61.73405 | 34911 ft | 505 kts | 94° |
| 2026-04-25 07:14 | 23.26063 | 61.80999 | 34915 ft | 503 kts | 94° |
| 2026-04-25 07:14 | 23.25368 | 61.88555 | 34916 ft | 501 kts | 94° |
| 2026-04-25 07:15 | 23.24667 | 61.96095 | 34918 ft | 500 kts | 94° |
| 2026-04-25 07:15 | 23.23969 | 62.03583 | 34917 ft | 500 kts | 94° |
| 2026-04-25 07:16 | 23.23265 | 62.11107 | 34921 ft | 500 kts | 94° |
| 2026-04-25 07:16 | 23.22557 | 62.18633 | 34920 ft | 501 kts | 94° |
| 2026-04-25 07:17 | 23.21845 | 62.26173 | 34918 ft | 501 kts | 94° |
| 2026-04-25 07:17 | 23.21126 | 62.33732 | 34917 ft | 502 kts | 94° |
| 2026-04-25 07:18 | 23.20405 | 62.41279 | 34916 ft | 502 kts | 94° |
| 2026-04-25 07:18 | 23.19679 | 62.48840 | 34918 ft | 502 kts | 94° |
| 2026-04-25 07:19 | 23.18955 | 62.56343 | 34917 ft | 502 kts | 94° |
| 2026-04-25 07:19 | 23.18223 | 62.63898 | 34920 ft | 502 kts | 94° |
| 2026-04-25 07:20 | 23.17489 | 62.71428 | 34917 ft | 501 kts | 94° |
| 2026-04-25 07:20 | 23.16750 | 62.78970 | 34920 ft | 501 kts | 94° |
| 2026-04-25 07:21 | 23.16009 | 62.86495 | 34920 ft | 500 kts | 94° |
| 2026-04-25 07:21 | 23.15266 | 62.94008 | 34920 ft | 500 kts | 94° |
| 2026-04-25 07:22 | 23.14520 | 63.01520 | 34922 ft | 500 kts | 94° |
| 2026-04-25 07:22 | 23.13774 | 63.08983 | 34920 ft | 499 kts | 94° |
| 2026-04-25 07:23 | 23.13022 | 63.16483 | 34918 ft | 499 kts | 94° |
| 2026-04-25 07:23 | 23.12266 | 63.23980 | 34921 ft | 499 kts | 94° |
| 2026-04-25 07:24 | 23.11506 | 63.31478 | 34921 ft | 499 kts | 94° |
| 2026-04-25 07:24 | 23.10743 | 63.38974 | 34918 ft | 499 kts | 94° |
| 2026-04-25 07:25 | 23.09976 | 63.46469 | 34917 ft | 499 kts | 94° |
| 2026-04-25 07:25 | 23.09207 | 63.53957 | 34913 ft | 499 kts | 94° |
| 2026-04-25 07:26 | 23.08433 | 63.61448 | 34914 ft | 498 kts | 94° |
| 2026-04-25 07:26 | 23.07657 | 63.68928 | 34916 ft | 498 kts | 94° |
| 2026-04-25 07:27 | 23.06884 | 63.76354 | 34913 ft | 497 kts | 94° |
| 2026-04-25 07:27 | 23.06101 | 63.83832 | 34916 ft | 497 kts | 94° |
| 2026-04-25 07:28 | 23.05326 | 63.91289 | 34914 ft | 496 kts | 94° |
| 2026-04-25 07:28 | 23.04576 | 63.98732 | 34917 ft | 496 kts | 94° |
| 2026-04-25 07:29 | 23.03829 | 64.06175 | 34910 ft | 495 kts | 94° |
| 2026-04-25 07:29 | 23.03079 | 64.13565 | 34913 ft | 495 kts | 94° |
| 2026-04-25 07:30 | 23.02319 | 64.20986 | 34912 ft | 494 kts | 94° |
| 2026-04-25 07:30 | 23.01556 | 64.28398 | 34913 ft | 494 kts | 94° |
| 2026-04-25 07:31 | 23.00789 | 64.35821 | 34910 ft | 494 kts | 94° |
| 2026-04-25 07:31 | 23.00019 | 64.43234 | 34907 ft | 494 kts | 94° |
| 2026-04-25 07:32 | 22.99247 | 64.50641 | 34909 ft | 493 kts | 94° |
| 2026-04-25 07:32 | 22.98476 | 64.58002 | 34911 ft | 493 kts | 94° |
| 2026-04-25 07:33 | 22.97697 | 64.65405 | 34911 ft | 493 kts | 94° |
| 2026-04-25 07:33 | 22.96914 | 64.72811 | 34912 ft | 493 kts | 95° |
| 2026-04-25 07:34 | 22.96129 | 64.80214 | 34911 ft | 493 kts | 95° |
| 2026-04-25 07:34 | 22.95575 | 64.87622 | 34905 ft | 492 kts | 89° |
| 2026-04-25 07:35 | 22.95624 | 64.94987 | 34907 ft | 490 kts | 86° |
| 2026-04-25 07:35 | 22.95836 | 65.02390 | 34907 ft | 491 kts | 86° |
| 2026-04-25 07:36 | 22.95969 | 65.09809 | 34902 ft | 491 kts | 87° |
| 2026-04-25 07:36 | 22.96016 | 65.17222 | 34907 ft | 491 kts | 88° |
| 2026-04-25 07:37 | 22.96032 | 65.24593 | 34906 ft | 491 kts | 88° |
| 2026-04-25 07:37 | 22.96050 | 65.32005 | 34905 ft | 491 kts | 88° |
| 2026-04-25 07:38 | 22.96073 | 65.39411 | 34906 ft | 491 kts | 88° |
| 2026-04-25 07:38 | 22.96096 | 65.46831 | 34901 ft | 491 kts | 88° |
| 2026-04-25 07:39 | 22.96115 | 65.54237 | 34902 ft | 490 kts | 88° |
| 2026-04-25 07:39 | 22.96130 | 65.61645 | 34901 ft | 490 kts | 88° |
| 2026-04-25 07:40 | 22.96141 | 65.68984 | 34901 ft | 489 kts | 88° |
| 2026-04-25 07:40 | 22.96149 | 65.76378 | 34903 ft | 489 kts | 88° |
| 2026-04-25 07:41 | 22.96154 | 65.83757 | 34900 ft | 489 kts | 88° |
| 2026-04-25 07:41 | 22.96155 | 65.91122 | 34898 ft | 488 kts | 88° |
| 2026-04-25 07:42 | 22.96152 | 65.98488 | 34900 ft | 488 kts | 88° |
| 2026-04-25 07:42 | 22.96147 | 66.05860 | 34901 ft | 488 kts | 88° |
| 2026-04-25 07:43 | 22.96138 | 66.13187 | 34903 ft | 488 kts | 88° |
| 2026-04-25 07:43 | 22.96125 | 66.20602 | 34901 ft | 488 kts | 88° |
| 2026-04-25 07:44 | 22.96110 | 66.27927 | 34896 ft | 489 kts | 88° |
| 2026-04-25 07:44 | 22.96090 | 66.35349 | 34897 ft | 489 kts | 88° |
| 2026-04-25 07:45 | 22.96068 | 66.42692 | 34896 ft | 490 kts | 88° |
| 2026-04-25 07:45 | 22.96042 | 66.50081 | 34899 ft | 490 kts | 88° |
| 2026-04-25 07:46 | 22.96012 | 66.57488 | 34899 ft | 491 kts | 89° |
| 2026-04-25 07:46 | 22.95979 | 66.64900 | 34900 ft | 491 kts | 89° |
| 2026-04-25 07:47 | 22.95942 | 66.72328 | 34898 ft | 492 kts | 89° |
| 2026-04-25 07:47 | 22.95902 | 66.79745 | 34896 ft | 492 kts | 89° |
| 2026-04-25 07:48 | 22.95859 | 66.87128 | 34899 ft | 492 kts | 89° |
| 2026-04-25 07:48 | 22.95812 | 66.94566 | 34898 ft | 492 kts | 89° |
| 2026-04-25 07:49 | 22.95788 | 67.00744 | 34896 ft | 492 kts | 89° |
| 2026-04-25 07:49 | 22.95809 | 67.08178 | 34898 ft | 492 kts | 88° |
| 2026-04-25 07:50 | 22.95839 | 67.15611 | 34894 ft | 492 kts | 89° |
| 2026-04-25 07:50 | 22.95856 | 67.23044 | 34892 ft | 492 kts | 89° |
| 2026-04-25 07:51 | 22.95862 | 67.30486 | 34889 ft | 493 kts | 89° |
| 2026-04-25 07:51 | 22.95864 | 67.37921 | 34894 ft | 493 kts | 89° |
| 2026-04-25 07:52 | 22.95863 | 67.45356 | 34893 ft | 493 kts | 89° |
| 2026-04-25 07:52 | 22.95860 | 67.52805 | 34893 ft | 493 kts | 89° |
| 2026-04-25 07:53 | 22.95854 | 67.60249 | 34894 ft | 493 kts | 89° |
| 2026-04-25 07:53 | 22.95844 | 67.67640 | 34892 ft | 493 kts | 89° |
| 2026-04-25 07:54 | 22.95830 | 67.75087 | 34892 ft | 492 kts | 89° |
| 2026-04-25 07:54 | 22.95813 | 67.82508 | 34891 ft | 492 kts | 89° |
| 2026-04-25 07:55 | 22.95796 | 67.89927 | 34890 ft | 492 kts | 89° |
| 2026-04-25 07:55 | 22.95803 | 67.97347 | 34893 ft | 491 kts | 89° |
| 2026-04-25 07:56 | 22.95817 | 68.04766 | 34892 ft | 491 kts | 89° |
| 2026-04-25 07:56 | 22.95822 | 68.12130 | 34889 ft | 490 kts | 89° |
| 2026-04-25 07:57 | 22.95819 | 68.19532 | 34889 ft | 490 kts | 89° |
| 2026-04-25 07:57 | 22.95813 | 68.26948 | 34891 ft | 490 kts | 89° |
| 2026-04-25 07:58 | 22.95806 | 68.34352 | 34887 ft | 490 kts | 89° |
| 2026-04-25 07:58 | 22.95679 | 68.41717 | 34879 ft | 490 kts | 92° |
| 2026-04-25 07:59 | 22.95253 | 68.49104 | 34885 ft | 490 kts | 93° |
| 2026-04-25 07:59 | 22.94753 | 68.56480 | 34886 ft | 490 kts | 93° |
| 2026-04-25 08:00 | 22.94284 | 68.63864 | 34885 ft | 490 kts | 93° |
| 2026-04-25 08:00 | 22.93846 | 68.71247 | 34887 ft | 490 kts | 92° |
| 2026-04-25 08:01 | 22.93415 | 68.78622 | 34884 ft | 490 kts | 92° |
| 2026-04-25 08:01 | 22.92979 | 68.85989 | 34886 ft | 489 kts | 92° |
| 2026-04-25 08:02 | 22.92538 | 68.93314 | 34881 ft | 489 kts | 92° |
| 2026-04-25 08:02 | 22.92090 | 69.00675 | 34880 ft | 489 kts | 92° |
| 2026-04-25 08:03 | 22.91639 | 69.08040 | 34889 ft | 488 kts | 92° |
| 2026-04-25 08:03 | 22.91185 | 69.15388 | 34889 ft | 488 kts | 92° |
| 2026-04-25 08:04 | 22.90730 | 69.22724 | 34884 ft | 487 kts | 92° |
| 2026-04-25 08:04 | 22.90272 | 69.30044 | 34883 ft | 487 kts | 92° |
| 2026-04-25 08:05 | 22.89809 | 69.37382 | 34878 ft | 486 kts | 92° |
| 2026-04-25 08:05 | 22.89348 | 69.44650 | 34882 ft | 486 kts | 92° |
| 2026-04-25 08:06 | 22.88880 | 69.51959 | 34881 ft | 485 kts | 92° |
| 2026-04-25 08:06 | 22.88410 | 69.59265 | 34879 ft | 485 kts | 92° |
| 2026-04-25 08:07 | 22.87937 | 69.66568 | 34873 ft | 485 kts | 92° |
| 2026-04-25 08:07 | 22.87473 | 69.73827 | 34878 ft | 485 kts | 92° |
| 2026-04-25 08:08 | 22.87050 | 69.81118 | 34881 ft | 484 kts | 92° |
| 2026-04-25 08:08 | 22.86638 | 69.88410 | 34880 ft | 484 kts | 92° |
| 2026-04-25 08:09 | 22.86215 | 69.95705 | 34874 ft | 485 kts | 92° |
| 2026-04-25 08:09 | 22.85783 | 70.02997 | 34879 ft | 484 kts | 92° |
| 2026-04-25 08:10 | 22.85346 | 70.10280 | 34882 ft | 483 kts | 92° |
| 2026-04-25 08:10 | 22.84907 | 70.17555 | 34882 ft | 483 kts | 92° |
| 2026-04-25 08:11 | 22.84470 | 70.24771 | 34886 ft | 483 kts | 92° |
| 2026-04-25 08:11 | 22.84026 | 70.32036 | 34886 ft | 482 kts | 92° |
| 2026-04-25 08:12 | 22.83579 | 70.39293 | 34885 ft | 482 kts | 92° |
| 2026-04-25 08:12 | 22.83129 | 70.46547 | 34885 ft | 482 kts | 92° |
| 2026-04-25 08:13 | 22.82676 | 70.53802 | 34885 ft | 482 kts | 92° |
| 2026-04-25 08:14 | 22.81990 | 70.64683 | 34879 ft | 482 kts | 92° |
| 2026-04-25 08:14 | 22.81529 | 70.71938 | 34877 ft | 482 kts | 92° |
| 2026-04-25 08:15 | 22.81066 | 70.79183 | 34879 ft | 482 kts | 92° |
| 2026-04-25 08:15 | 22.80977 | 70.86368 | 34857 ft | 475 kts | 84° |
| 2026-04-25 08:16 | 22.81911 | 70.93444 | 34869 ft | 475 kts | 77° |
| 2026-04-25 08:16 | 22.83241 | 71.00493 | 34875 ft | 478 kts | 77° |
| 2026-04-25 08:17 | 22.84469 | 71.07590 | 34873 ft | 481 kts | 78° |
| 2026-04-25 08:17 | 22.85565 | 71.14753 | 34860 ft | 482 kts | 79° |
| 2026-04-25 08:18 | 22.86607 | 71.21901 | 34860 ft | 482 kts | 79° |
| 2026-04-25 08:18 | 22.87655 | 71.29086 | 34857 ft | 481 kts | 79° |
| 2026-04-25 08:19 | 22.88711 | 71.36248 | 34856 ft | 480 kts | 79° |
| 2026-04-25 08:19 | 22.89768 | 71.43401 | 34847 ft | 479 kts | 79° |
| 2026-04-25 08:20 | 22.90817 | 71.50520 | 34852 ft | 478 kts | 79° |
| 2026-04-25 08:20 | 22.91861 | 71.57635 | 34848 ft | 477 kts | 79° |
| 2026-04-25 08:21 | 22.92894 | 71.64709 | 34836 ft | 477 kts | 79° |
| 2026-04-25 08:21 | 22.93929 | 71.71816 | 34841 ft | 476 kts | 79° |
| 2026-04-25 08:22 | 22.94961 | 71.78927 | 34837 ft | 476 kts | 79° |
| 2026-04-25 08:22 | 22.95989 | 71.86029 | 34833 ft | 476 kts | 79° |
| 2026-04-25 08:23 | 22.97013 | 71.93134 | 34831 ft | 477 kts | 79° |
| 2026-04-25 08:23 | 22.98029 | 72.00199 | 34820 ft | 477 kts | 80° |
| 2026-04-25 08:24 | 22.99049 | 72.07312 | 34822 ft | 477 kts | 80° |
| 2026-04-25 08:24 | 23.00067 | 72.14438 | 34822 ft | 477 kts | 79° |
| 2026-04-25 08:25 | 23.01079 | 72.21547 | 34816 ft | 477 kts | 80° |
| 2026-04-25 08:25 | 23.02088 | 72.28656 | 34815 ft | 476 kts | 80° |
| 2026-04-25 08:26 | 23.03095 | 72.35779 | 34821 ft | 476 kts | 80° |
| 2026-04-25 08:26 | 23.04089 | 72.42826 | 34824 ft | 476 kts | 80° |
| 2026-04-25 08:27 | 23.05090 | 72.49956 | 34829 ft | 477 kts | 80° |
| 2026-04-25 08:27 | 23.06087 | 72.57070 | 34830 ft | 477 kts | 80° |
| 2026-04-25 08:28 | 23.07049 | 72.64197 | 34827 ft | 477 kts | 82° |
| 2026-04-25 08:28 | 23.07588 | 72.71386 | 34834 ft | 478 kts | 85° |
| 2026-04-25 08:29 | 23.07882 | 72.78611 | 34822 ft | 479 kts | 86° |
| 2026-04-25 08:29 | 23.08193 | 72.85844 | 34820 ft | 479 kts | 85° |